createdAt,value
2017-04-01T00:00:03.764Z,22.23
2017-04-01T00:01:13.736Z,22.23
2017-04-01T00:02:24.006Z,22.28
2017-04-01T00:03:33.966Z,22.26
2017-04-01T00:04:44.235Z,22.19
2017-04-01T00:05:54.808Z,22.21
2017-04-01T00:07:05.079Z,22.15
2017-04-01T00:08:15.356Z,22.19
2017-04-01T00:09:25.634Z,22.19
2017-04-01T00:10:35.908Z,22.14
2017-04-01T00:11:46.130Z,22.12
2017-04-01T00:12:56.413Z,22.16
2017-04-01T00:14:06.691Z,22.16
2017-04-01T00:15:16.956Z,22.12
2017-04-01T00:16:27.243Z,22.12
2017-04-01T00:17:37.828Z,22.18
2017-04-01T00:18:48.101Z,22.15
2017-04-01T00:19:58.367Z,22.19
2017-04-01T00:21:08.647Z,22.15
2017-04-01T00:22:18.917Z,22.18
2017-04-01T00:23:29.195Z,22.16
2017-04-01T00:24:39.475Z,22.12
2017-04-01T00:25:49.740Z,22.07
2017-04-01T00:27:00.019Z,22.15
2017-04-01T00:28:09.994Z,22.14
2017-04-01T00:29:20.561Z,22.12
2017-04-01T00:30:30.826Z,22.15
2017-04-01T00:31:41.085Z,22.14
2017-04-01T00:32:51.052Z,22.15
2017-04-01T00:34:01.013Z,22.18
2017-04-01T00:35:11.267Z,22.16
2017-04-01T00:36:21.570Z,22.18
2017-04-01T00:37:31.536Z,22.19
2017-04-01T00:38:41.809Z,22.21
2017-04-01T00:39:52.080Z,22.08
2017-04-01T00:41:02.655Z,22.18
2017-04-01T00:42:12.634Z,22.18
2017-04-01T00:43:22.906Z,22.15
2017-04-01T00:44:33.182Z,22.08
2017-04-01T00:45:43.146Z,22.12
2017-04-01T00:46:53.735Z,22.21
2017-04-01T00:48:04.053Z,22.1
2017-04-01T00:49:14.324Z,22.1
2017-04-01T00:50:24.604Z,22.18
2017-04-01T00:51:34.882Z,22.15
2017-04-01T00:52:45.460Z,22.15
2017-04-01T00:53:55.731Z,22.12
2017-04-01T00:55:06.013Z,22.07
2017-04-01T00:56:15.986Z,22.07
2017-04-01T00:57:26.260Z,22.14
2017-04-01T00:58:36.832Z,22.01
2017-04-01T00:59:47.112Z,22.08
2017-04-01T01:00:57.388Z,22.01
2017-04-01T01:02:07.353Z,22.1
2017-04-01T01:03:17.636Z,22.08
2017-04-01T01:04:27.899Z,22
2017-04-01T01:05:37.553Z,22.08
2017-04-01T01:06:47.192Z,22.06
2017-04-01T01:07:57.467Z,22.07
2017-04-01T01:09:07.773Z,22
2017-04-01T01:10:18.349Z,22.07
2017-04-01T01:11:28.625Z,22.01
2017-04-01T01:12:38.913Z,21.96
2017-04-01T01:13:48.872Z,21.99
2017-04-01T01:14:59.143Z,22.01
2017-04-01T01:16:09.708Z,22.01
2017-04-01T01:17:19.986Z,21.96
2017-04-01T01:18:29.951Z,22.06
2017-04-01T01:19:39.921Z,22.04
2017-04-01T01:20:49.566Z,22
2017-04-01T01:21:59.780Z,22.04
2017-04-01T01:23:10.052Z,22.07
2017-04-01T01:24:19.702Z,22.07
2017-04-01T01:25:29.978Z,22.03
2017-04-01T01:26:40.250Z,22
2017-04-01T01:27:50.513Z,22.07
2017-04-01T01:29:00.780Z,22.06
2017-04-01T01:30:10.124Z,22.07
2017-04-01T01:31:20.484Z,22.07
2017-04-01T01:32:30.777Z,22.06
2017-04-01T01:33:41.045Z,21.99
2017-04-01T01:34:50.709Z,22.1
2017-04-01T01:36:00.985Z,22.01
2017-04-01T01:37:11.264Z,22.08
2017-04-01T01:38:21.541Z,22.06
2017-04-01T01:39:32.113Z,22.03
2017-04-01T01:40:42.074Z,22.06
2017-04-01T01:41:52.342Z,22
2017-04-01T01:43:02.614Z,21.96
2017-04-01T01:44:12.269Z,22
2017-04-01T01:45:23.095Z,21.94
2017-04-01T01:46:33.074Z,21.96
2017-04-01T01:47:43.338Z,21.85
2017-04-01T01:48:53.302Z,21.81
2017-04-01T01:50:03.279Z,21.92
2017-04-01T01:51:13.499Z,21.91
2017-04-01T01:52:23.765Z,21.97
2017-04-01T01:53:34.038Z,21.83
2017-04-01T01:54:44.308Z,21.92
2017-04-01T01:55:54.584Z,21.96
2017-04-01T01:57:04.798Z,21.96
2017-04-01T01:58:14.756Z,21.96
2017-04-01T01:59:25.028Z,21.94
2017-04-01T02:00:35.460Z,21.89
2017-04-01T02:01:45.730Z,21.91
2017-04-01T02:02:55.821Z,21.89
2017-04-01T02:04:05.467Z,21.89
2017-04-01T02:05:14.806Z,21.91
2017-04-01T02:06:25.085Z,21.89
2017-04-01T02:07:35.086Z,21.78
2017-04-01T02:08:45.679Z,21.81
2017-04-01T02:09:55.955Z,21.89
2017-04-01T02:11:06.223Z,21.81
2017-04-01T02:12:16.489Z,21.8
2017-04-01T02:13:26.774Z,21.85
2017-04-01T02:14:37.351Z,21.83
2017-04-01T02:15:47.625Z,21.85
2017-04-01T02:16:57.902Z,21.83
2017-04-01T02:18:07.858Z,21.85
2017-04-01T02:19:17.507Z,21.85
2017-04-01T02:20:27.771Z,21.78
2017-04-01T02:21:37.731Z,21.84
2017-04-01T02:22:48.024Z,21.84
2017-04-01T02:23:57.985Z,21.85
2017-04-01T02:25:08.256Z,21.88
2017-04-01T02:26:18.796Z,21.89
2017-04-01T02:27:28.756Z,21.83
2017-04-01T02:28:39.599Z,21.85
2017-04-01T02:29:49.558Z,21.78
2017-04-01T02:30:59.824Z,21.83
2017-04-01T02:32:10.354Z,21.81
2017-04-01T02:33:20.311Z,21.8
2017-04-01T02:34:30.270Z,21.8
2017-04-01T02:35:40.544Z,21.83
2017-04-01T02:36:50.513Z,21.77
2017-04-01T02:38:00.724Z,21.89
2017-04-01T02:39:11.001Z,21.72
2017-04-01T02:40:20.963Z,21.78
2017-04-01T02:41:30.921Z,21.81
2017-04-01T02:42:41.195Z,21.74
2017-04-01T02:43:51.141Z,21.8
2017-04-01T02:45:01.102Z,21.72
2017-04-01T02:46:11.054Z,21.8
2017-04-01T02:47:21.321Z,21.7
2017-04-01T02:48:31.281Z,21.75
2017-04-01T02:49:41.499Z,21.81
2017-04-01T02:50:51.455Z,21.81
2017-04-01T02:52:01.759Z,21.74
2017-04-01T02:53:12.076Z,21.74
2017-04-01T02:54:22.350Z,21.75
2017-04-01T02:55:32.925Z,21.75
2017-04-01T02:56:43.201Z,21.84
2017-04-01T02:57:53.527Z,21.7
2017-04-01T02:59:03.487Z,21.78
2017-04-01T03:00:13.458Z,21.7
2017-04-01T03:01:23.711Z,21.72
2017-04-01T03:02:33.995Z,21.74
2017-04-01T03:03:44.276Z,21.69
2017-04-01T03:04:54.553Z,21.77
2017-04-01T03:06:04.242Z,21.7
2017-04-01T03:07:14.833Z,21.72
2017-04-01T03:08:24.490Z,21.68
2017-04-01T03:09:34.760Z,21.68
2017-04-01T03:10:45.029Z,21.72
2017-04-01T03:11:55.294Z,21.65
2017-04-01T03:13:05.862Z,21.6
2017-04-01T03:14:16.123Z,21.65
2017-04-01T03:15:26.405Z,21.56
2017-04-01T03:16:36.685Z,21.72
2017-04-01T03:17:47.112Z,21.6
2017-04-01T03:18:57.669Z,21.68
2017-04-01T03:20:07.633Z,21.72
2017-04-01T03:21:17.600Z,21.74
2017-04-01T03:22:27.875Z,21.62
2017-04-01T03:23:38.174Z,21.66
2017-04-01T03:24:48.431Z,21.68
2017-04-01T03:25:58.701Z,21.6
2017-04-01T03:27:08.974Z,21.69
2017-04-01T03:28:19.249Z,21.65
2017-04-01T03:29:29.222Z,21.56
2017-04-01T03:30:39.741Z,21.63
2017-04-01T03:31:50.010Z,21.65
2017-04-01T03:32:59.968Z,21.6
2017-04-01T03:34:10.254Z,21.58
2017-04-01T03:35:20.521Z,21.62
2017-04-01T03:36:31.057Z,21.62
2017-04-01T03:37:41.326Z,21.65
2017-04-01T03:38:51.285Z,21.59
2017-04-01T03:40:01.552Z,21.65
2017-04-01T03:41:11.527Z,21.6
2017-04-01T03:42:21.782Z,21.54
2017-04-01T03:43:32.057Z,21.63
2017-04-01T03:44:42.015Z,21.69
2017-04-01T03:45:52.288Z,21.58
2017-04-01T03:47:02.574Z,21.62
2017-04-01T03:48:12.837Z,21.62
2017-04-01T03:49:23.108Z,21.59
2017-04-01T03:50:33.066Z,21.62
2017-04-01T03:51:43.341Z,21.6
2017-04-01T03:52:53.619Z,21.58
2017-04-01T03:54:04.188Z,21.65
2017-04-01T03:55:14.150Z,21.59
2017-04-01T03:56:24.422Z,21.6
2017-04-01T03:57:34.070Z,21.59
2017-04-01T03:58:43.722Z,21.6
2017-04-01T03:59:53.987Z,21.59
2017-04-01T04:01:04.258Z,21.59
2017-04-01T04:02:14.226Z,21.59
2017-04-01T04:03:24.506Z,21.63
2017-04-01T04:04:34.777Z,21.58
2017-04-01T04:05:44.724Z,21.62
2017-04-01T04:06:54.997Z,21.58
2017-04-01T04:08:05.276Z,21.56
2017-04-01T04:09:15.230Z,21.59
2017-04-01T04:10:25.212Z,21.59
2017-04-01T04:11:35.824Z,21.51
2017-04-01T04:12:46.104Z,21.6
2017-04-01T04:13:56.369Z,21.51
2017-04-01T04:15:06.642Z,21.62
2017-04-01T04:16:16.602Z,21.63
2017-04-01T04:17:27.125Z,21.59
2017-04-01T04:18:37.400Z,21.5
2017-04-01T04:19:47.674Z,21.62
2017-04-01T04:20:57.941Z,21.58
2017-04-01T04:22:08.148Z,21.63
2017-04-01T04:23:18.740Z,21.59
2017-04-01T04:24:28.703Z,21.59
2017-04-01T04:25:38.660Z,21.59
2017-04-01T04:26:48.309Z,21.59
2017-04-01T04:27:58.273Z,21.53
2017-04-01T04:29:08.839Z,21.59
2017-04-01T04:30:19.116Z,21.56
2017-04-01T04:31:29.395Z,21.59
2017-04-01T04:32:39.363Z,21.58
2017-04-01T04:33:49.646Z,21.65
2017-04-01T04:35:00.171Z,21.56
2017-04-01T04:36:10.136Z,21.58
2017-04-01T04:37:19.809Z,21.58
2017-04-01T04:38:30.082Z,21.56
2017-04-01T04:39:40.048Z,21.59
2017-04-01T04:40:50.309Z,21.54
2017-04-01T04:42:00.312Z,21.6
2017-04-01T04:43:10.587Z,21.6
2017-04-01T04:44:20.851Z,21.65
2017-04-01T04:45:31.120Z,21.5
2017-04-01T04:46:41.704Z,21.53
2017-04-01T04:47:51.667Z,21.59
2017-04-01T04:49:01.958Z,21.51
2017-04-01T04:50:11.918Z,21.63
2017-04-01T04:51:22.194Z,21.54
2017-04-01T04:52:32.515Z,21.59
2017-04-01T04:53:42.797Z,21.56
2017-04-01T04:54:53.073Z,21.56
2017-04-01T04:56:03.352Z,21.62
2017-04-01T04:57:13.652Z,21.65
2017-04-01T04:58:24.222Z,21.56
2017-04-01T04:59:34.185Z,21.65
2017-04-01T05:00:43.836Z,21.6
2017-04-01T05:01:54.110Z,21.58
2017-04-01T05:03:04.066Z,21.6
2017-04-01T05:04:14.335Z,21.59
2017-04-01T05:05:24.287Z,21.6
2017-04-01T05:06:34.256Z,21.66
2017-04-01T05:07:44.534Z,21.6
2017-04-01T05:08:54.807Z,21.56
2017-04-01T05:10:05.069Z,21.59
2017-04-01T05:11:15.033Z,21.54
2017-04-01T05:12:25.006Z,21.54
2017-04-01T05:13:35.277Z,21.59
2017-04-01T05:14:45.552Z,21.6
2017-04-01T05:15:56.121Z,21.63
2017-04-01T05:17:06.401Z,21.58
2017-04-01T05:18:16.365Z,21.63
2017-04-01T05:19:26.320Z,21.54
2017-04-01T05:20:36.600Z,21.62
2017-04-01T05:21:47.183Z,21.6
2017-04-01T05:22:57.473Z,21.58
2017-04-01T05:24:07.123Z,21.6
2017-04-01T05:25:17.078Z,21.6
2017-04-01T05:26:27.362Z,21.63
2017-04-01T05:27:37.930Z,21.53
2017-04-01T05:28:48.201Z,21.58
2017-04-01T05:29:58.703Z,21.63
2017-04-01T05:31:08.673Z,21.63
2017-04-01T05:32:18.624Z,21.66
2017-04-01T05:33:29.344Z,21.62
2017-04-01T05:34:39.305Z,21.65
2017-04-01T05:35:49.584Z,21.65
2017-04-01T05:36:59.854Z,21.62
2017-04-01T05:38:10.198Z,21.68
2017-04-01T05:39:20.190Z,21.74
2017-04-01T05:40:30.463Z,21.69
2017-04-01T05:41:40.430Z,21.66
2017-04-01T05:42:50.691Z,21.69
2017-04-01T05:44:00.981Z,21.72
2017-04-01T05:45:11.554Z,21.68
2017-04-01T05:46:21.519Z,21.74
2017-04-01T05:47:31.804Z,21.74
2017-04-01T05:48:41.779Z,21.69
2017-04-01T05:49:52.045Z,21.69
2017-04-01T05:51:02.620Z,21.72
2017-04-01T05:52:12.935Z,21.75
2017-04-01T05:53:23.203Z,21.75
2017-04-01T05:54:33.476Z,21.72
2017-04-01T05:55:43.742Z,21.7
2017-04-01T05:56:54.003Z,21.8
2017-04-01T05:58:04.263Z,21.68
2017-04-01T05:59:14.534Z,21.74
2017-04-01T06:00:24.800Z,21.74
2017-04-01T06:01:35.071Z,21.84
2017-04-01T06:02:45.467Z,21.77
2017-04-01T06:03:55.746Z,21.75
2017-04-01T06:05:06.021Z,21.77
2017-04-01T06:06:15.984Z,21.74
2017-04-01T06:07:26.265Z,21.77
2017-04-01T06:08:36.932Z,21.77
2017-04-01T06:09:46.581Z,21.81
2017-04-01T06:10:56.863Z,21.89
2017-04-01T06:12:07.199Z,21.83
2017-04-01T06:13:17.469Z,21.89
2017-04-01T06:14:28.043Z,21.78
2017-04-01T06:15:38.320Z,21.85
2017-04-01T06:16:48.593Z,21.88
2017-04-01T06:17:58.570Z,21.85
2017-04-01T06:19:08.856Z,21.89
2017-04-01T06:20:19.432Z,21.89
2017-04-01T06:21:29.397Z,21.88
2017-04-01T06:22:39.674Z,21.83
2017-04-01T06:23:49.948Z,21.89
2017-04-01T06:25:00.216Z,21.94
2017-04-01T06:26:10.478Z,21.84
2017-04-01T06:27:20.759Z,21.84
2017-04-01T06:28:31.033Z,21.84
2017-04-01T06:29:41.306Z,21.96
2017-04-01T06:30:51.580Z,21.89
2017-04-01T06:32:01.840Z,21.97
2017-04-01T06:33:12.127Z,21.94
2017-04-01T06:34:22.508Z,21.94
2017-04-01T06:35:32.789Z,21.97
2017-04-01T06:36:43.064Z,21.99
2017-04-01T06:37:53.630Z,21.99
2017-04-01T06:39:03.913Z,22
2017-04-01T06:40:13.869Z,21.99
2017-04-01T06:41:24.206Z,22
2017-04-01T06:42:34.482Z,22
2017-04-01T06:43:44.742Z,22.04
2017-04-01T06:44:54.446Z,22.01
2017-04-01T06:46:04.737Z,22.07
2017-04-01T06:47:14.707Z,22
2017-04-01T06:48:24.740Z,21.99
2017-04-01T06:49:34.707Z,22.06
2017-04-01T06:50:44.986Z,22.08
2017-04-01T06:51:55.279Z,21.97
2017-04-01T06:53:05.552Z,22.01
2017-04-01T06:54:15.824Z,22.06
2017-04-01T06:55:26.394Z,22.1
2017-04-01T06:56:36.680Z,22.08
2017-04-01T06:57:46.963Z,22.04
2017-04-01T06:58:57.251Z,22.04
2017-04-01T07:00:07.522Z,22.04
2017-04-01T07:01:18.103Z,22
2017-04-01T07:02:28.440Z,22.14
2017-04-01T07:03:38.412Z,22.01
2017-04-01T07:04:48.382Z,22.07
2017-04-01T07:05:58.674Z,22.14
2017-04-01T07:07:08.944Z,22.1
2017-04-01T07:08:19.211Z,22.14
2017-04-01T07:09:29.493Z,22.14
2017-04-01T07:10:39.770Z,22.08
2017-04-01T07:11:50.048Z,22.08
2017-04-01T07:13:00.622Z,22.12
2017-04-01T07:14:10.598Z,22.12
2017-04-01T07:15:20.870Z,22.15
2017-04-01T07:16:31.384Z,22.19
2017-04-01T07:17:41.348Z,22.1
2017-04-01T07:18:51.608Z,22.08
2017-04-01T07:20:01.600Z,22.15
2017-04-01T07:21:11.884Z,22.08
2017-04-01T07:22:22.183Z,22.19
2017-04-01T07:23:32.478Z,22.19
2017-04-01T07:24:42.746Z,22.19
2017-04-01T07:25:53.022Z,22.1
2017-04-01T07:27:03.287Z,22.19
2017-04-01T07:28:13.272Z,22.1
2017-04-01T07:29:23.555Z,22.08
2017-04-01T07:30:34.153Z,22.16
2017-04-01T07:31:44.435Z,22.15
2017-04-01T07:32:54.427Z,22.15
2017-04-01T07:34:04.407Z,22.23
2017-04-01T07:35:14.689Z,22.16
2017-04-01T07:36:25.277Z,22.15
2017-04-01T07:37:35.555Z,22.15
2017-04-01T07:38:45.826Z,22.19
2017-04-01T07:39:56.122Z,22.21
2017-04-01T07:41:06.397Z,22.21
2017-04-01T07:42:17.012Z,22.25
2017-04-01T07:43:27.289Z,22.21
2017-04-01T07:44:37.576Z,22.19
2017-04-01T07:45:47.535Z,22.16
2017-04-01T07:46:57.503Z,22.16
2017-04-01T07:48:07.763Z,22.31
2017-04-01T07:49:17.736Z,22.21
2017-04-01T07:50:27.709Z,22.31
2017-04-01T07:51:37.990Z,22.3
2017-04-01T07:52:48.263Z,22.23
2017-04-01T07:53:58.847Z,22.33
2017-04-01T07:55:09.134Z,22.3
2017-04-01T07:56:19.402Z,22.3
2017-04-01T07:57:29.364Z,22.28
2017-04-01T07:58:39.352Z,22.33
2017-04-01T07:59:49.931Z,22.34
2017-04-01T08:01:00.209Z,22.37
2017-04-01T08:02:10.488Z,22.28
2017-04-01T08:03:20.464Z,22.31
2017-04-01T08:04:30.742Z,22.37
2017-04-01T08:05:41.322Z,22.38
2017-04-01T08:06:51.291Z,22.31
2017-04-01T08:08:00.961Z,22.28
2017-04-01T08:09:10.923Z,22.28
2017-04-01T08:10:20.888Z,22.31
2017-04-01T08:11:31.465Z,22.31
2017-04-01T08:12:41.441Z,22.31
2017-04-01T08:13:51.708Z,22.3
2017-04-01T08:15:01.680Z,22.3
2017-04-01T08:16:11.343Z,22.31
2017-04-01T08:17:21.917Z,22.38
2017-04-01T08:18:32.195Z,22.26
2017-04-01T08:19:42.479Z,22.34
2017-04-01T08:20:52.759Z,22.34
2017-04-01T08:22:03.040Z,22.37
2017-04-01T08:23:13.637Z,22.33
2017-04-01T08:24:23.917Z,22.31
2017-04-01T08:25:34.198Z,22.34
2017-04-01T08:26:44.476Z,22.37
2017-04-01T08:27:54.752Z,22.34
2017-04-01T08:29:05.017Z,22.34
2017-04-01T08:30:15.296Z,22.37
2017-04-01T08:31:25.280Z,22.31
2017-04-01T08:32:35.245Z,22.3
2017-04-01T08:33:45.521Z,22.31
2017-04-01T08:34:56.120Z,22.37
2017-04-01T08:36:06.403Z,22.34
2017-04-01T08:37:16.681Z,22.38
2017-04-01T08:38:26.998Z,22.37
2017-04-01T08:39:36.661Z,22.33
2017-04-01T08:40:47.265Z,22.4
2017-04-01T08:41:57.235Z,22.36
2017-04-01T08:43:07.529Z,22.37
2017-04-01T08:44:17.492Z,22.36
2017-04-01T08:45:27.458Z,22.37
2017-04-01T08:46:37.729Z,22.38
2017-04-01T08:47:48.013Z,22.34
2017-04-01T08:48:58.291Z,22.37
2017-04-01T08:50:08.577Z,22.36
2017-04-01T08:51:18.866Z,22.36
2017-04-01T08:52:28.827Z,22.36
2017-04-01T08:53:38.796Z,22.38
2017-04-01T08:54:49.078Z,22.38
2017-04-01T08:55:59.386Z,22.38
2017-04-01T08:57:09.913Z,22.41
2017-04-01T08:58:20.501Z,22.37
2017-04-01T08:59:30.789Z,22.3
2017-04-01T09:00:41.107Z,22.38
2017-04-01T09:01:51.392Z,22.4
2017-04-01T09:03:01.669Z,22.41
2017-04-01T09:04:12.267Z,22.37
2017-04-01T09:05:22.235Z,22.38
2017-04-01T09:06:32.526Z,22.4
2017-04-01T09:07:42.806Z,22.37
2017-04-01T09:08:52.765Z,22.4
2017-04-01T09:10:03.363Z,22.36
2017-04-01T09:11:13.644Z,22.37
2017-04-01T09:12:23.935Z,22.37
2017-04-01T09:13:34.211Z,22.4
2017-04-01T09:14:44.181Z,22.36
2017-04-01T09:15:54.458Z,22.47
2017-04-01T09:17:04.734Z,22.34
2017-04-01T09:18:15.012Z,22.38
2017-04-01T09:19:25.323Z,22.38
2017-04-01T09:20:35.303Z,22.4
2017-04-01T09:21:45.257Z,22.41
2017-04-01T09:22:55.565Z,22.4
2017-04-01T09:24:05.857Z,22.41
2017-04-01T09:25:16.137Z,22.38
2017-04-01T09:26:26.426Z,22.4
2017-04-01T09:27:36.807Z,22.37
2017-04-01T09:28:46.791Z,22.37
2017-04-01T09:29:57.096Z,22.41
2017-04-01T09:31:07.071Z,22.34
2017-04-01T09:32:17.346Z,22.41
2017-04-01T09:33:27.924Z,22.36
2017-04-01T09:34:38.200Z,22.31
2017-04-01T09:35:48.483Z,22.41
2017-04-01T09:36:58.786Z,22.46
2017-04-01T09:38:08.799Z,22.41
2017-04-01T09:39:19.377Z,22.4
2017-04-01T09:40:29.348Z,22.4
2017-04-01T09:41:39.629Z,22.38
2017-04-01T09:42:49.594Z,22.43
2017-04-01T09:43:59.884Z,22.46
2017-04-01T09:45:10.153Z,22.38
2017-04-01T09:46:19.530Z,22.44
2017-04-01T09:47:28.898Z,22.47
2017-04-01T09:48:39.197Z,22.47
2017-04-01T09:49:48.866Z,22.4
2017-04-01T09:50:59.458Z,22.4
2017-04-01T09:52:09.742Z,22.38
2017-04-01T09:53:20.013Z,22.38
2017-04-01T09:54:29.995Z,22.46
2017-04-01T09:55:39.669Z,22.46
2017-04-01T09:56:50.294Z,22.43
2017-04-01T09:58:00.580Z,22.46
2017-04-01T09:59:10.862Z,22.43
2017-04-01T10:00:21.137Z,22.55
2017-04-01T10:01:31.405Z,22.49
2017-04-01T10:02:41.994Z,22.47
2017-04-01T10:03:51.978Z,22.47
2017-04-01T10:05:02.257Z,22.46
2017-04-01T10:06:12.534Z,22.46
2017-04-01T10:07:22.260Z,22.55
2017-04-01T10:08:32.846Z,22.46
2017-04-01T10:09:43.133Z,22.46
2017-04-01T10:10:53.425Z,22.47
2017-04-01T10:12:03.755Z,22.43
2017-04-01T10:13:13.770Z,22.46
2017-04-01T10:14:24.061Z,22.53
2017-04-01T10:15:34.342Z,22.43
2017-04-01T10:16:44.310Z,22.44
2017-04-01T10:17:53.966Z,22.47
2017-04-01T10:19:04.257Z,22.52
2017-04-01T10:20:14.522Z,22.53
2017-04-01T10:21:24.810Z,22.56
2017-04-01T10:22:35.088Z,22.47
2017-04-01T10:23:45.371Z,22.51
2017-04-01T10:24:55.647Z,22.53
2017-04-01T10:26:06.238Z,22.52
2017-04-01T10:27:16.524Z,22.49
2017-04-01T10:28:26.177Z,22.53
2017-04-01T10:29:36.457Z,22.56
2017-04-01T10:30:46.749Z,22.46
2017-04-01T10:31:56.720Z,22.52
2017-04-01T10:33:06.694Z,22.49
2017-04-01T10:34:16.670Z,22.55
2017-04-01T10:35:27.010Z,22.53
2017-04-01T10:36:36.985Z,22.61
2017-04-01T10:37:47.564Z,22.53
2017-04-01T10:38:57.534Z,22.51
2017-04-01T10:40:07.821Z,22.58
2017-04-01T10:41:17.796Z,22.55
2017-04-01T10:42:28.073Z,22.56
2017-04-01T10:43:38.662Z,22.53
2017-04-01T10:44:48.961Z,22.49
2017-04-01T10:45:58.947Z,22.53
2017-04-01T10:47:09.236Z,22.53
2017-04-01T10:48:19.513Z,22.52
2017-04-01T10:49:29.487Z,22.58
2017-04-01T10:50:39.778Z,22.62
2017-04-01T10:51:49.752Z,22.58
2017-04-01T10:53:00.054Z,22.52
2017-04-01T10:54:10.345Z,22.53
2017-04-01T10:55:20.613Z,22.52
2017-04-01T10:56:30.273Z,22.52
2017-04-01T10:57:40.240Z,22.53
2017-04-01T10:58:50.535Z,22.56
2017-04-01T11:00:00.831Z,22.56
2017-04-01T11:01:11.413Z,22.47
2017-04-01T11:02:21.396Z,22.59
2017-04-01T11:03:31.361Z,22.53
2017-04-01T11:04:41.334Z,22.53
2017-04-01T11:05:51.625Z,22.51
2017-04-01T11:07:01.907Z,22.47
2017-04-01T11:08:11.886Z,22.62
2017-04-01T11:09:22.175Z,22.49
2017-04-01T11:10:31.817Z,22.61
2017-04-01T11:11:42.105Z,22.62
2017-04-01T11:12:52.699Z,22.53
2017-04-01T11:14:02.682Z,22.65
2017-04-01T11:15:12.661Z,22.52
2017-04-01T11:16:22.950Z,22.62
2017-04-01T11:17:33.245Z,22.55
2017-04-01T11:18:43.832Z,22.52
2017-04-01T11:19:53.812Z,22.52
2017-04-01T11:21:04.100Z,22.55
2017-04-01T11:22:14.405Z,22.58
2017-04-01T11:23:24.744Z,22.55
2017-04-01T11:24:34.715Z,22.61
2017-04-01T11:25:44.683Z,22.62
2017-04-01T11:26:54.648Z,22.63
2017-04-01T11:28:04.931Z,22.63
2017-04-01T11:29:15.219Z,22.52
2017-04-01T11:30:25.818Z,22.65
2017-04-01T11:31:36.107Z,22.63
2017-04-01T11:32:46.072Z,22.58
2017-04-01T11:33:56.410Z,22.62
2017-04-01T11:35:06.726Z,22.62
2017-04-01T11:36:17.317Z,22.62
2017-04-01T11:37:27.611Z,22.65
2017-04-01T11:38:37.587Z,22.65
2017-04-01T11:39:47.880Z,22.67
2017-04-01T11:40:58.181Z,22.65
2017-04-01T11:42:08.165Z,22.63
2017-04-01T11:43:18.444Z,22.61
2017-04-01T11:44:28.728Z,22.7
2017-04-01T11:45:39.005Z,22.62
2017-04-01T11:46:49.339Z,22.67
2017-04-01T11:47:59.917Z,22.58
2017-04-01T11:49:10.220Z,22.65
2017-04-01T11:50:20.237Z,22.65
2017-04-01T11:51:30.528Z,22.67
2017-04-01T11:52:40.811Z,22.68
2017-04-01T11:53:50.453Z,22.67
2017-04-01T11:55:00.116Z,22.65
2017-04-01T11:56:10.389Z,22.68
2017-04-01T11:57:20.700Z,22.61
2017-04-01T11:58:30.667Z,22.68
2017-04-01T11:59:41.569Z,22.71
2017-04-01T12:00:51.539Z,22.7
2017-04-01T12:02:01.826Z,22.71
2017-04-01T12:03:12.110Z,22.67
2017-04-01T12:04:22.093Z,22.7
2017-04-01T12:05:32.369Z,22.68
2017-04-01T12:06:42.643Z,22.68
2017-04-01T12:07:52.930Z,22.7
2017-04-01T12:09:02.894Z,22.7
2017-04-01T12:10:13.176Z,22.62
2017-04-01T12:11:23.704Z,22.73
2017-04-01T12:12:33.995Z,22.68
2017-04-01T12:13:43.974Z,22.67
2017-04-01T12:14:54.255Z,22.73
2017-04-01T12:16:04.543Z,22.74
2017-04-01T12:17:14.809Z,22.73
2017-04-01T12:18:25.098Z,22.71
2017-04-01T12:19:35.384Z,22.7
2017-04-01T12:20:45.366Z,22.74
2017-04-01T12:21:55.659Z,22.71
2017-04-01T12:23:06.245Z,22.76
2017-04-01T12:24:16.206Z,22.77
2017-04-01T12:25:26.488Z,22.7
2017-04-01T12:26:36.460Z,22.68
2017-04-01T12:27:46.766Z,22.77
2017-04-01T12:28:57.292Z,22.67
2017-04-01T12:30:07.418Z,22.63
2017-04-01T12:31:17.717Z,22.67
2017-04-01T12:32:27.072Z,22.71
2017-04-01T12:33:37.366Z,22.74
2017-04-01T12:34:52.210Z,22.73
2017-04-01T12:36:02.518Z,22.76
2017-04-01T12:37:12.808Z,22.67
2017-04-01T12:38:23.092Z,22.65
2017-04-01T12:39:33.086Z,22.68
2017-04-01T12:40:43.617Z,22.74
2017-04-01T12:41:53.913Z,22.67
2017-04-01T12:43:04.197Z,22.67
2017-04-01T12:44:13.851Z,22.67
2017-04-01T12:45:24.134Z,22.73
2017-04-01T12:46:34.662Z,22.67
2017-04-01T12:47:44.943Z,22.62
2017-04-01T12:48:55.222Z,22.77
2017-04-01T12:50:05.200Z,22.68
2017-04-01T12:51:15.486Z,22.71
2017-04-01T12:52:26.015Z,22.77
2017-04-01T12:53:35.375Z,22.67
2017-04-01T12:54:45.661Z,22.71
2017-04-01T12:55:55.641Z,22.68
2017-04-01T12:57:05.622Z,22.73
2017-04-01T12:58:15.834Z,22.7
2017-04-01T12:59:26.165Z,22.7
2017-04-01T13:00:36.450Z,22.77
2017-04-01T13:01:46.752Z,22.81
2017-04-01T13:02:57.037Z,22.68
2017-04-01T13:04:07.641Z,22.67
2017-04-01T13:05:17.920Z,22.78
2017-04-01T13:06:28.197Z,22.77
2017-04-01T13:07:38.172Z,22.68
2017-04-01T13:08:48.460Z,22.67
2017-04-01T13:09:58.727Z,22.73
2017-04-01T13:11:08.699Z,22.61
2017-04-01T13:12:18.669Z,22.68
2017-04-01T13:13:28.630Z,22.71
2017-04-01T13:14:38.921Z,22.71
2017-04-01T13:15:49.523Z,22.7
2017-04-01T13:16:59.805Z,22.68
2017-04-01T13:18:10.097Z,22.7
2017-04-01T13:19:20.382Z,22.74
2017-04-01T13:20:30.395Z,22.71
2017-04-01T13:21:40.940Z,22.65
2017-04-01T13:22:50.908Z,22.67
2017-04-01T13:24:01.201Z,22.63
2017-04-01T13:25:11.490Z,22.68
2017-04-01T13:26:21.767Z,22.68
2017-04-01T13:27:32.296Z,22.76
2017-04-01T13:28:42.581Z,22.7
2017-04-01T13:29:52.869Z,22.68
2017-04-01T13:31:03.145Z,22.61
2017-04-01T13:32:13.131Z,22.68
2017-04-01T13:33:23.707Z,22.74
2017-04-01T13:34:33.980Z,22.68
2017-04-01T13:35:43.957Z,22.7
2017-04-01T13:36:54.246Z,22.7
2017-04-01T13:38:04.527Z,22.65
2017-04-01T13:39:15.061Z,22.65
2017-04-01T13:40:24.723Z,22.71
2017-04-01T13:41:34.998Z,22.62
2017-04-01T13:42:44.970Z,22.68
2017-04-01T13:43:55.251Z,22.74
2017-04-01T13:45:05.228Z,22.73
2017-04-01T13:46:15.518Z,22.67
2017-04-01T13:47:25.798Z,22.7
2017-04-01T13:48:36.092Z,22.77
2017-04-01T13:49:46.386Z,22.76
2017-04-01T13:50:56.651Z,22.68
2017-04-01T13:52:06.629Z,22.7
2017-04-01T13:53:16.915Z,22.65
2017-04-01T13:54:26.879Z,22.7
2017-04-01T13:55:36.855Z,22.76
2017-04-01T13:56:47.093Z,22.7
2017-04-01T13:57:57.070Z,22.68
2017-04-01T13:59:07.057Z,22.76
2017-04-01T14:00:17.341Z,22.8
2017-04-01T14:01:27.640Z,22.74
2017-04-01T14:02:38.220Z,22.74
2017-04-01T14:03:48.183Z,22.71
2017-04-01T14:04:58.487Z,22.73
2017-04-01T14:06:08.773Z,22.71
2017-04-01T14:07:19.070Z,22.74
2017-04-01T14:08:29.604Z,22.76
2017-04-01T14:09:39.872Z,22.71
2017-04-01T14:10:49.842Z,22.78
2017-04-01T14:12:00.121Z,22.76
2017-04-01T14:13:09.800Z,22.68
2017-04-01T14:14:20.341Z,22.68
2017-04-01T14:15:30.616Z,22.68
2017-04-01T14:16:40.913Z,22.74
2017-04-01T14:17:51.195Z,22.77
2017-04-01T14:19:01.201Z,22.83
2017-04-01T14:20:11.796Z,22.77
2017-04-01T14:21:22.084Z,22.78
2017-04-01T14:22:32.363Z,22.81
2017-04-01T14:23:42.668Z,22.76
2017-04-01T14:24:52.939Z,22.73
2017-04-01T14:26:03.477Z,22.8
2017-04-01T14:27:13.449Z,22.73
2017-04-01T14:28:23.414Z,22.83
2017-04-01T14:29:33.388Z,22.77
2017-04-01T14:30:43.703Z,22.78
2017-04-01T14:31:53.990Z,22.78
2017-04-01T14:33:04.271Z,22.78
2017-04-01T14:34:14.554Z,22.81
2017-04-01T14:35:24.306Z,22.78
2017-04-01T14:36:33.997Z,22.77
2017-04-01T14:37:44.265Z,22.76
2017-04-01T14:38:54.574Z,22.77
2017-04-01T14:40:04.548Z,22.78
2017-04-01T14:41:14.848Z,22.77
2017-04-01T14:42:25.128Z,22.78
2017-04-01T14:43:35.721Z,22.8
2017-04-01T14:44:46.007Z,22.74
2017-04-01T14:45:56.314Z,22.81
2017-04-01T14:47:06.601Z,22.78
2017-04-01T14:48:16.903Z,22.78
2017-04-01T14:49:27.621Z,22.83
2017-04-01T14:50:37.904Z,22.77
2017-04-01T14:51:47.875Z,22.78
2017-04-01T14:52:57.569Z,22.81
2017-04-01T14:54:07.871Z,22.78
2017-04-01T14:55:18.504Z,22.76
2017-04-01T14:56:28.819Z,22.78
2017-04-01T14:57:39.120Z,22.76
2017-04-01T14:58:49.401Z,22.71
2017-04-01T14:59:59.675Z,22.76
2017-04-01T15:01:10.243Z,22.7
2017-04-01T15:02:20.217Z,22.8
2017-04-01T15:03:30.173Z,22.81
2017-04-01T15:04:40.465Z,22.78
2017-04-01T15:05:50.743Z,22.74
2017-04-01T15:07:01.350Z,22.81
2017-04-01T15:08:11.324Z,22.78